Ghotki Weather



Ghotki's Current Weather

Temprature 16o haze

haze

Rain: 0 %

Min Temprature16o
Max Temprature16o
Humidity63
Wind Speed3.1 m/h
Sun Rise07:12:30
Sun Set17:57:51
Current Time: 27-Jan-2020 18:26:13
Lat/Lon: 28.01, 69.32




Ghotki's Geo Location



Ghotki's Weather Forecast

Time Overall Temp Min Temp Max Temp Humidity Wind Speed Rain
27-Jan-2020 (Mon)
20:00:00 broken clouds 14.530 14.530 18.970 43 4.9 m/h 0 %
23:00:00 broken clouds 13.380 13.380 16.710 47 5.66 m/h 0 %
28-Jan-2020 (Tue)
02:00:00 overcast clouds 13.730 13.730 15.950 56 6.94 m/h 0 %
05:00:00 broken clouds 12.330 12.330 13.440 67 3.4 m/h 0 %
08:00:00 clear sky 13.030 13.030 13.030 66 3.4 m/h 0 %
11:00:00 clear sky 19.320 19.320 19.320 37 4.06 m/h 0 %
14:00:00 clear sky 21.530 21.530 21.530 28 2.56 m/h 0 %
17:00:00 few clouds 21.280 21.280 21.280 23 5.08 m/h 0 %
20:00:00 clear sky 17.010 17.010 17.010 39 3.4 m/h 0 %
23:00:00 clear sky 15.380 15.380 15.380 46 1.63 m/h 0 %
29-Jan-2020 (Wed)
02:00:00 clear sky 14.500 14.500 14.500 49 2.42 m/h 0 %
05:00:00 clear sky 13.680 13.680 13.680 52 2.77 m/h 0 %
08:00:00 clear sky 13.900 13.900 13.900 46 1.94 m/h 0 %
11:00:00 clear sky 20.420 20.420 20.420 26 1.25 m/h 0 %
14:00:00 clear sky 22.860 22.860 22.860 22 3.24 m/h 0 %
17:00:00 clear sky 22.320 22.320 22.320 22 3.42 m/h 0 %
20:00:00 clear sky 17.960 17.960 17.960 27 2.09 m/h 0 %
23:00:00 clear sky 16.300 16.300 16.300 33 2.64 m/h 0 %
30-Jan-2020 (Thu)
02:00:00 clear sky 14.960 14.960 14.960 35 2.54 m/h 0 %
05:00:00 clear sky 13.380 13.380 13.380 39 3.78 m/h 0 %
08:00:00 scattered clouds 12.520 12.520 12.520 48 4.34 m/h 0 %
11:00:00 few clouds 19.720 19.720 19.720 30 3.49 m/h 0 %
14:00:00 clear sky 22.740 22.740 22.740 20 2.36 m/h 0 %
17:00:00 clear sky 22.650 22.650 22.650 19 2.4 m/h 0 %
20:00:00 clear sky 17.170 17.170 17.170 28 0.91 m/h 0 %
23:00:00 clear sky 15.780 15.780 15.780 33 3.45 m/h 0 %
31-Jan-2020 (Fri)
02:00:00 clear sky 15.140 15.140 15.140 32 3.19 m/h 0 %
05:00:00 clear sky 13.780 13.780 13.780 35 2.73 m/h 0 %
08:00:00 clear sky 13.370 13.370 13.370 38 3.32 m/h 0 %
11:00:00 clear sky 20.370 20.370 20.370 22 1.73 m/h 0 %
14:00:00 clear sky 23.540 23.540 23.540 17 2.23 m/h 0 %
17:00:00 clear sky 23.200 23.200 23.200 18 4.36 m/h 0 %
20:00:00 clear sky 17.930 17.930 17.930 27 3.44 m/h 0 %
23:00:00 clear sky 16.410 16.410 16.410 29 2.64 m/h 0 %
01-Feb-2020 (Sat)
02:00:00 clear sky 15.130 15.130 15.130 30 3.25 m/h 0 %
05:00:00 clear sky 13.730 13.730 13.730 26 3.51 m/h 0 %
08:00:00 clear sky 13.700 13.700 13.700 38 4.35 m/h 0 %
11:00:00 clear sky 21.180 21.180 21.180 23 3.98 m/h 0 %
14:00:00 clear sky 23.620 23.620 23.620 16 2.27 m/h 0 %
17:00:00 clear sky 23.520 23.520 23.520 16 2.28 m/h 0 %

Famous Cities (61)